sensor_id;sensor_type;location;lat;lon;timestamp;P1;durP1;ratioP1;P2;durP2;ratioP2
74457;SDS011;62896;51.032;3.712;2023-04-03T00:02:31;9.1;;;6;;
74457;SDS011;62896;51.032;3.712;2023-04-03T00:05:51;9.1;;;6;;
74457;SDS011;62896;51.032;3.712;2023-04-03T00:09:11;9.1;;;6;;
74457;SDS011;62896;51.032;3.712;2023-04-03T00:12:31;9.1;;;6;;
74457;SDS011;62896;51.032;3.712;2023-04-03T00:15:51;8.8;;;5.5;;
74457;SDS011;62896;51.032;3.712;2023-04-03T00:19:11;8.8;;;5.5;;
74457;SDS011;62896;51.032;3.712;2023-04-03T00:22:31;8.8;;;5.5;;
74457;SDS011;62896;51.032;3.712;2023-04-03T00:25:51;8.8;;;5.5;;
74457;SDS011;62896;51.032;3.712;2023-04-03T00:29:11;8.8;;;5.5;;
74457;SDS011;62896;51.032;3.712;2023-04-03T00:32:31;8.8;;;5.5;;
74457;SDS011;62896;51.032;3.712;2023-04-03T00:35:51;8.8;;;5.5;;
74457;SDS011;62896;51.032;3.712;2023-04-03T00:39:11;8.8;;;5.5;;
74457;SDS011;62896;51.032;3.712;2023-04-03T00:42:31;7.6;;;4.2;;
74457;SDS011;62896;51.032;3.712;2023-04-03T00:45:51;7.6;;;4.2;;
74457;SDS011;62896;51.032;3.712;2023-04-03T00:49:11;7.6;;;4.2;;
74457;SDS011;62896;51.032;3.712;2023-04-03T00:52:31;7.6;;;4.2;;
74457;SDS011;62896;51.032;3.712;2023-04-03T00:55:51;7.6;;;4.2;;
74457;SDS011;62896;51.032;3.712;2023-04-03T00:59:12;7.6;;;4.2;;
74457;SDS011;62896;51.032;3.712;2023-04-03T01:02:31;7.6;;;4.2;;
74457;SDS011;62896;51.032;3.712;2023-04-03T01:05:51;8;;;4.2;;
74457;SDS011;62896;51.032;3.712;2023-04-03T01:09:11;8;;;4.2;;
74457;SDS011;62896;51.032;3.712;2023-04-03T01:12:32;8;;;4.2;;
74457;SDS011;62896;51.032;3.712;2023-04-03T01:15:51;8;;;4.2;;
74457;SDS011;62896;51.032;3.712;2023-04-03T01:19:12;8;;;4.2;;
74457;SDS011;62896;51.032;3.712;2023-04-03T01:22:31;8;;;4.2;;
74457;SDS011;62896;51.032;3.712;2023-04-03T01:25:51;8;;;4.2;;
74457;SDS011;62896;51.032;3.712;2023-04-03T01:29:11;8;;;4.2;;
74457;SDS011;62896;51.032;3.712;2023-04-03T01:32:31;7.5;;;4;;
74457;SDS011;62896;51.032;3.712;2023-04-03T01:35:51;7.5;;;4;;
74457;SDS011;62896;51.032;3.712;2023-04-03T01:39:11;7.5;;;4;;
74457;SDS011;62896;51.032;3.712;2023-04-03T01:42:31;7.5;;;4;;
74457;SDS011;62896;51.032;3.712;2023-04-03T01:45:51;7.5;;;4;;
74457;SDS011;62896;51.032;3.712;2023-04-03T01:49:11;7.5;;;4;;
74457;SDS011;62896;51.032;3.712;2023-04-03T01:52:31;7.5;;;4;;
74457;SDS011;62896;51.032;3.712;2023-04-03T01:55:51;6.9;;;4.1;;
74457;SDS011;62896;51.032;3.712;2023-04-03T01:59:11;6.9;;;4.1;;
74457;SDS011;62896;51.032;3.712;2023-04-03T02:02:31;6.9;;;4.1;;
74457;SDS011;62896;51.032;3.712;2023-04-03T02:05:51;6.9;;;4.1;;
74457;SDS011;62896;51.032;3.712;2023-04-03T02:09:11;6.9;;;4.1;;
74457;SDS011;62896;51.032;3.712;2023-04-03T02:12:31;6.9;;;4.1;;
74457;SDS011;62896;51.032;3.712;2023-04-03T02:15:51;6.9;;;4.1;;
74457;SDS011;62896;51.032;3.712;2023-04-03T02:19:11;6.9;;;4.1;;
74457;SDS011;62896;51.032;3.712;2023-04-03T02:22:31;7.9;;;4.3;;
74457;SDS011;62896;51.032;3.712;2023-04-03T02:25:51;7.9;;;4.3;;
74457;SDS011;62896;51.032;3.712;2023-04-03T02:29:11;7.9;;;4.3;;
74457;SDS011;62896;51.032;3.712;2023-04-03T02:32:31;7.9;;;4.3;;
74457;SDS011;62896;51.032;3.712;2023-04-03T02:35:52;7.9;;;4.3;;
74457;SDS011;62896;51.032;3.712;2023-04-03T02:39:11;7.9;;;4.3;;
74457;SDS011;62896;51.032;3.712;2023-04-03T02:42:31;7.9;;;4.3;;
74457;SDS011;62896;51.032;3.712;2023-04-03T02:45:51;8.6;;;4.2;;
74457;SDS011;62896;51.032;3.712;2023-04-03T02:49:11;8.6;;;4.2;;
74457;SDS011;62896;51.032;3.712;2023-04-03T02:52:31;8.6;;;4.2;;
74457;SDS011;62896;51.032;3.712;2023-04-03T02:55:51;8.6;;;4.2;;
74457;SDS011;62896;51.032;3.712;2023-04-03T02:59:11;8.6;;;4.2;;
74457;SDS011;62896;51.032;3.712;2023-04-03T03:02:31;8.6;;;4.2;;
74457;SDS011;62896;51.032;3.712;2023-04-03T03:06:00;8.6;;;4.2;;
74457;SDS011;62896;51.032;3.712;2023-04-03T03:09:11;8.6;;;4.2;;
74457;SDS011;62896;51.032;3.712;2023-04-03T03:12:31;8.2;;;4.9;;
74457;SDS011;62896;51.032;3.712;2023-04-03T03:15:51;8.2;;;4.9;;
74457;SDS011;62896;51.032;3.712;2023-04-03T03:19:11;8.2;;;4.9;;
74457;SDS011;62896;51.032;3.712;2023-04-03T03:22:31;8.2;;;4.9;;
74457;SDS011;62896;51.032;3.712;2023-04-03T03:25:54;8.2;;;4.9;;
74457;SDS011;62896;51.032;3.712;2023-04-03T03:29:11;8.2;;;4.9;;
74457;SDS011;62896;51.032;3.712;2023-04-03T03:32:31;8.2;;;4.9;;
74457;SDS011;62896;51.032;3.712;2023-04-03T03:35:51;9.7;;;4.5;;
74457;SDS011;62896;51.032;3.712;2023-04-03T03:39:11;9.7;;;4.5;;
74457;SDS011;62896;51.032;3.712;2023-04-03T03:42:31;9.7;;;4.5;;
74457;SDS011;62896;51.032;3.712;2023-04-03T03:45:51;9.7;;;4.5;;
74457;SDS011;62896;51.032;3.712;2023-04-03T03:49:11;9.7;;;4.5;;
74457;SDS011;62896;51.032;3.712;2023-04-03T03:52:31;9.7;;;4.5;;
74457;SDS011;62896;51.032;3.712;2023-04-03T03:55:51;9.7;;;4.5;;
74457;SDS011;62896;51.032;3.712;2023-04-03T03:59:11;9.7;;;4.5;;
74457;SDS011;62896;51.032;3.712;2023-04-03T04:02:31;9.4;;;4.5;;
74457;SDS011;62896;51.032;3.712;2023-04-03T04:05:51;9.4;;;4.5;;
74457;SDS011;62896;51.032;3.712;2023-04-03T04:09:11;9.4;;;4.5;;
74457;SDS011;62896;51.032;3.712;2023-04-03T04:12:31;9.4;;;4.5;;
74457;SDS011;62896;51.032;3.712;2023-04-03T04:15:51;9.4;;;4.5;;
74457;SDS011;62896;51.032;3.712;2023-04-03T04:19:11;9.4;;;4.5;;
74457;SDS011;62896;51.032;3.712;2023-04-03T04:22:31;9.4;;;4.5;;
74457;SDS011;62896;51.032;3.712;2023-04-03T04:25:51;8.9;;;4.6;;
74457;SDS011;62896;51.032;3.712;2023-04-03T04:29:11;8.9;;;4.6;;
74457;SDS011;62896;51.032;3.712;2023-04-03T04:32:31;8.9;;;4.6;;
74457;SDS011;62896;51.032;3.712;2023-04-03T04:35:51;8.9;;;4.6;;
74457;SDS011;62896;51.032;3.712;2023-04-03T04:39:11;8.9;;;4.6;;
74457;SDS011;62896;51.032;3.712;2023-04-03T04:42:31;8.9;;;4.6;;
74457;SDS011;62896;51.032;3.712;2023-04-03T04:45:59;8.9;;;4.6;;
74457;SDS011;62896;51.032;3.712;2023-04-03T04:49:11;8.9;;;4.6;;
74457;SDS011;62896;51.032;3.712;2023-04-03T04:52:31;8.4;;;4.9;;
74457;SDS011;62896;51.032;3.712;2023-04-03T04:55:51;8.4;;;4.9;;
74457;SDS011;62896;51.032;3.712;2023-04-03T04:59:11;8.4;;;4.9;;
74457;SDS011;62896;51.032;3.712;2023-04-03T05:02:31;8.4;;;4.9;;
74457;SDS011;62896;51.032;3.712;2023-04-03T05:05:51;8.4;;;4.9;;
74457;SDS011;62896;51.032;3.712;2023-04-03T05:09:11;8.4;;;4.9;;
74457;SDS011;62896;51.032;3.712;2023-04-03T05:12:31;8.4;;;4.9;;
74457;SDS011;62896;51.032;3.712;2023-04-03T05:15:51;7.2;;;4.7;;
74457;SDS011;62896;51.032;3.712;2023-04-03T05:19:11;7.2;;;4.7;;
74457;SDS011;62896;51.032;3.712;2023-04-03T05:22:31;7.2;;;4.7;;
74457;SDS011;62896;51.032;3.712;2023-04-03T05:25:51;7.2;;;4.7;;
74457;SDS011;62896;51.032;3.712;2023-04-03T05:29:11;7.2;;;4.7;;
74457;SDS011;62896;51.032;3.712;2023-04-03T05:32:31;7.2;;;4.7;;
74457;SDS011;62896;51.032;3.712;2023-04-03T05:35:51;7.2;;;4.7;;
74457;SDS011;62896;51.032;3.712;2023-04-03T05:39:11;7.2;;;4.7;;
74457;SDS011;62896;51.032;3.712;2023-04-03T05:42:31;8.7;;;5.5;;
74457;SDS011;62896;51.032;3.712;2023-04-03T05:45:51;8.7;;;5.5;;
74457;SDS011;62896;51.032;3.712;2023-04-03T05:49:11;8.7;;;5.5;;
74457;SDS011;62896;51.032;3.712;2023-04-03T05:52:31;8.7;;;5.5;;
74457;SDS011;62896;51.032;3.712;2023-04-03T05:55:51;8.7;;;5.5;;
74457;SDS011;62896;51.032;3.712;2023-04-03T05:59:11;8.7;;;5.5;;
74457;SDS011;62896;51.032;3.712;2023-04-03T06:02:31;8.7;;;5.5;;
74457;SDS011;62896;51.032;3.712;2023-04-03T06:05:51;10.2;;;5.7;;
74457;SDS011;62896;51.032;3.712;2023-04-03T06:09:11;10.2;;;5.7;;
74457;SDS011;62896;51.032;3.712;2023-04-03T06:12:31;10.2;;;5.7;;
74457;SDS011;62896;51.032;3.712;2023-04-03T06:15:51;10.2;;;5.7;;
74457;SDS011;62896;51.032;3.712;2023-04-03T06:19:11;10.2;;;5.7;;
74457;SDS011;62896;51.032;3.712;2023-04-03T06:22:31;10.2;;;5.7;;
74457;SDS011;62896;51.032;3.712;2023-04-03T06:25:51;10.2;;;5.7;;
74457;SDS011;62896;51.032;3.712;2023-04-03T06:29:11;10.2;;;5.7;;
74457;SDS011;62896;51.032;3.712;2023-04-03T06:32:31;9.9;;;6;;
74457;SDS011;62896;51.032;3.712;2023-04-03T06:35:55;9.9;;;6;;
74457;SDS011;62896;51.032;3.712;2023-04-03T06:39:11;9.9;;;6;;
74457;SDS011;62896;51.032;3.712;2023-04-03T06:42:31;9.9;;;6;;
74457;SDS011;62896;51.032;3.712;2023-04-03T06:45:51;9.9;;;6;;
74457;SDS011;62896;51.032;3.712;2023-04-03T06:49:11;9.9;;;6;;
74457;SDS011;62896;51.032;3.712;2023-04-03T06:52:31;9.9;;;6;;
74457;SDS011;62896;51.032;3.712;2023-04-03T06:55:51;9.9;;;5.5;;
74457;SDS011;62896;51.032;3.712;2023-04-03T06:59:11;9.9;;;5.5;;
74457;SDS011;62896;51.032;3.712;2023-04-03T07:02:31;9.9;;;5.5;;
74457;SDS011;62896;51.032;3.712;2023-04-03T07:05:51;9.9;;;5.5;;
74457;SDS011;62896;51.032;3.712;2023-04-03T07:09:11;9.9;;;5.5;;
74457;SDS011;62896;51.032;3.712;2023-04-03T07:12:31;9.9;;;5.5;;
74457;SDS011;62896;51.032;3.712;2023-04-03T07:15:51;9.9;;;5.5;;
74457;SDS011;62896;51.032;3.712;2023-04-03T07:19:11;9.9;;;5.5;;
74457;SDS011;62896;51.032;3.712;2023-04-03T07:22:31;12.7;;;5.2;;
74457;SDS011;62896;51.032;3.712;2023-04-03T07:25:51;12.7;;;5.2;;
74457;SDS011;62896;51.032;3.712;2023-04-03T07:29:11;12.7;;;5.2;;
74457;SDS011;62896;51.032;3.712;2023-04-03T07:32:31;12.7;;;5.2;;
74457;SDS011;62896;51.032;3.712;2023-04-03T07:35:51;12.7;;;5.2;;
74457;SDS011;62896;51.032;3.712;2023-04-03T07:39:11;12.7;;;5.2;;
74457;SDS011;62896;51.032;3.712;2023-04-03T07:42:31;12.7;;;5.2;;
74457;SDS011;62896;51.032;3.712;2023-04-03T07:45:51;11.5;;;4.9;;
74457;SDS011;62896;51.032;3.712;2023-04-03T07:49:11;11.5;;;4.9;;
74457;SDS011;62896;51.032;3.712;2023-04-03T07:52:31;11.5;;;4.9;;
74457;SDS011;62896;51.032;3.712;2023-04-03T07:55:51;11.5;;;4.9;;
74457;SDS011;62896;51.032;3.712;2023-04-03T07:59:11;11.5;;;4.9;;
74457;SDS011;62896;51.032;3.712;2023-04-03T08:02:31;11.5;;;4.9;;
74457;SDS011;62896;51.032;3.712;2023-04-03T08:05:51;11.5;;;4.9;;
74457;SDS011;62896;51.032;3.712;2023-04-03T08:09:11;11.5;;;4.9;;
74457;SDS011;62896;51.032;3.712;2023-04-03T08:12:31;10;;;5.2;;
74457;SDS011;62896;51.032;3.712;2023-04-03T08:15:51;10;;;5.2;;
74457;SDS011;62896;51.032;3.712;2023-04-03T08:19:11;10;;;5.2;;
74457;SDS011;62896;51.032;3.712;2023-04-03T08:22:31;10;;;5.2;;
74457;SDS011;62896;51.032;3.712;2023-04-03T08:25:51;10;;;5.2;;
74457;SDS011;62896;51.032;3.712;2023-04-03T08:29:11;10;;;5.2;;
74457;SDS011;62896;51.032;3.712;2023-04-03T08:32:32;10;;;5.2;;
74457;SDS011;62896;51.032;3.712;2023-04-03T08:35:51;11.1;;;5.9;;
74457;SDS011;62896;51.032;3.712;2023-04-03T08:39:11;11.1;;;5.9;;
74457;SDS011;62896;51.032;3.712;2023-04-03T08:42:36;11.1;;;5.9;;
74457;SDS011;62896;51.032;3.712;2023-04-03T08:45:52;11.1;;;5.9;;
74457;SDS011;62896;51.032;3.712;2023-04-03T08:49:14;11.1;;;5.9;;
74457;SDS011;62896;51.032;3.712;2023-04-03T08:52:32;11.1;;;5.9;;
74457;SDS011;62896;51.032;3.712;2023-04-03T08:55:51;11.1;;;5.9;;
74457;SDS011;62896;51.032;3.712;2023-04-03T08:59:12;11.1;;;5.9;;
74457;SDS011;62896;51.032;3.712;2023-04-03T09:02:33;5.9;;;3.8;;
74457;SDS011;62896;51.032;3.712;2023-04-03T09:05:53;5.9;;;3.8;;
74457;SDS011;62896;51.032;3.712;2023-04-03T09:09:12;5.9;;;3.8;;
74457;SDS011;62896;51.032;3.712;2023-04-03T09:12:34;5.9;;;3.8;;
74457;SDS011;62896;51.032;3.712;2023-04-03T09:15:51;5.9;;;3.8;;
74457;SDS011;62896;51.032;3.712;2023-04-03T09:19:15;5.9;;;3.8;;
74457;SDS011;62896;51.032;3.712;2023-04-03T09:22:32;5.9;;;3.8;;
74457;SDS011;62896;51.032;3.712;2023-04-03T09:25:53;7.4;;;2.9;;
74457;SDS011;62896;51.032;3.712;2023-04-03T09:29:14;7.4;;;2.9;;
74457;SDS011;62896;51.032;3.712;2023-04-03T09:32:32;7.4;;;2.9;;
74457;SDS011;62896;51.032;3.712;2023-04-03T09:35:51;7.4;;;2.9;;
74457;SDS011;62896;51.032;3.712;2023-04-03T09:39:13;7.4;;;2.9;;
74457;SDS011;62896;51.032;3.712;2023-04-03T09:42:31;7.4;;;2.9;;
74457;SDS011;62896;51.032;3.712;2023-04-03T09:45:52;7.4;;;2.9;;
74457;SDS011;62896;51.032;3.712;2023-04-03T09:49:11;7.4;;;2.9;;
74457;SDS011;62896;51.032;3.712;2023-04-03T09:52:31;5.4;;;2.7;;
74457;SDS011;62896;51.032;3.712;2023-04-03T09:55:51;5.4;;;2.7;;
74457;SDS011;62896;51.032;3.712;2023-04-03T09:59:13;5.4;;;2.7;;
74457;SDS011;62896;51.032;3.712;2023-04-03T10:02:34;5.4;;;2.7;;
74457;SDS011;62896;51.032;3.712;2023-04-03T10:05:51;5.4;;;2.7;;
74457;SDS011;62896;51.032;3.712;2023-04-03T10:09:16;5.4;;;2.7;;
74457;SDS011;62896;51.032;3.712;2023-04-03T10:12:31;5.4;;;2.7;;
74457;SDS011;62896;51.032;3.712;2023-04-03T10:15:55;5.3;;;2.1;;
74457;SDS011;62896;51.032;3.712;2023-04-03T10:19:14;5.3;;;2.1;;
74457;SDS011;62896;51.032;3.712;2023-04-03T10:22:33;5.3;;;2.1;;
74457;SDS011;62896;51.032;3.712;2023-04-03T10:25:55;5.3;;;2.1;;
74457;SDS011;62896;51.032;3.712;2023-04-03T10:29:15;5.3;;;2.1;;
74457;SDS011;62896;51.032;3.712;2023-04-03T10:32:40;5.3;;;2.1;;
74457;SDS011;62896;51.032;3.712;2023-04-03T10:35:53;5.3;;;2.1;;
74457;SDS011;62896;51.032;3.712;2023-04-03T10:39:14;5.3;;;2.1;;
74457;SDS011;62896;51.032;3.712;2023-04-03T10:42:33;6.8;;;2.1;;
74457;SDS011;62896;51.032;3.712;2023-04-03T10:45:53;6.8;;;2.1;;
74457;SDS011;62896;51.032;3.712;2023-04-03T10:49:15;6.8;;;2.1;;
74457;SDS011;62896;51.032;3.712;2023-04-03T10:52:33;6.8;;;2.1;;
74457;SDS011;62896;51.032;3.712;2023-04-03T10:55:52;6.8;;;2.1;;
74457;SDS011;62896;51.032;3.712;2023-04-03T10:59:16;6.8;;;2.1;;
74457;SDS011;62896;51.032;3.712;2023-04-03T11:02:32;6.8;;;2.1;;
74457;SDS011;62896;51.032;3.712;2023-04-03T11:05:52;4.7;;;1.8;;
74457;SDS011;62896;51.032;3.712;2023-04-03T11:09:15;4.7;;;1.8;;
74457;SDS011;62896;51.032;3.712;2023-04-03T11:12:33;4.7;;;1.8;;
74457;SDS011;62896;51.032;3.712;2023-04-03T11:15:52;4.7;;;1.8;;
74457;SDS011;62896;51.032;3.712;2023-04-03T11:19:13;4.7;;;1.8;;
74457;SDS011;62896;51.032;3.712;2023-04-03T11:22:32;4.7;;;1.8;;
74457;SDS011;62896;51.032;3.712;2023-04-03T11:25:53;4.7;;;1.8;;
74457;SDS011;62896;51.032;3.712;2023-04-03T11:29:12;4.7;;;1.8;;
74457;SDS011;62896;51.032;3.712;2023-04-03T11:32:36;6.5;;;1.6;;
74457;SDS011;62896;51.032;3.712;2023-04-03T11:35:52;6.5;;;1.6;;
74457;SDS011;62896;51.032;3.712;2023-04-03T11:39:16;6.5;;;1.6;;
74457;SDS011;62896;51.032;3.712;2023-04-03T11:42:32;6.5;;;1.6;;
74457;SDS011;62896;51.032;3.712;2023-04-03T11:45:53;6.5;;;1.6;;
74457;SDS011;62896;51.032;3.712;2023-04-03T11:49:19;6.5;;;1.6;;
74457;SDS011;62896;51.032;3.712;2023-04-03T11:53:24;6.5;;;1.6;;
74457;SDS011;62896;51.032;3.712;2023-04-03T11:55:52;3.3;;;1.1;;
74457;SDS011;62896;51.032;3.712;2023-04-03T11:59:15;3.3;;;1.1;;
74457;SDS011;62896;51.032;3.712;2023-04-03T12:02:35;3.3;;;1.1;;
74457;SDS011;62896;51.032;3.712;2023-04-03T12:05:52;3.3;;;1.1;;
74457;SDS011;62896;51.032;3.712;2023-04-03T12:09:22;3.3;;;1.1;;
74457;SDS011;62896;51.032;3.712;2023-04-03T12:12:36;3.3;;;1.1;;
74457;SDS011;62896;51.032;3.712;2023-04-03T12:15:52;3.3;;;1.1;;
74457;SDS011;62896;51.032;3.712;2023-04-03T12:19:29;3.3;;;1.1;;
74457;SDS011;62896;51.032;3.712;2023-04-03T12:22:31;1.6;;;1.1;;
74457;SDS011;62896;51.032;3.712;2023-04-03T12:25:51;1.6;;;1.1;;
74457;SDS011;62896;51.032;3.712;2023-04-03T12:29:14;1.6;;;1.1;;
74457;SDS011;62896;51.032;3.712;2023-04-03T12:32:35;1.6;;;1.1;;
74457;SDS011;62896;51.032;3.712;2023-04-03T12:35:56;1.6;;;1.1;;
74457;SDS011;62896;51.032;3.712;2023-04-03T12:39:13;1.6;;;1.1;;
74457;SDS011;62896;51.032;3.712;2023-04-03T12:42:37;1.6;;;1.1;;
74457;SDS011;62896;51.032;3.712;2023-04-03T12:45:52;2.4;;;1.2;;
74457;SDS011;62896;51.032;3.712;2023-04-03T12:49:14;2.4;;;1.2;;
74457;SDS011;62896;51.032;3.712;2023-04-03T12:52:33;2.4;;;1.2;;
74457;SDS011;62896;51.032;3.712;2023-04-03T12:55:53;2.4;;;1.2;;
74457;SDS011;62896;51.032;3.712;2023-04-03T12:59:13;2.4;;;1.2;;
74457;SDS011;62896;51.032;3.712;2023-04-03T13:02:32;2.4;;;1.2;;
74457;SDS011;62896;51.032;3.712;2023-04-03T13:05:52;2.4;;;1.2;;
74457;SDS011;62896;51.032;3.712;2023-04-03T13:09:18;2.4;;;1.2;;
74457;SDS011;62896;51.032;3.712;2023-04-03T13:12:31;3.2;;;1.4;;
74457;SDS011;62896;51.032;3.712;2023-04-03T13:15:52;3.2;;;1.4;;
74457;SDS011;62896;51.032;3.712;2023-04-03T13:19:15;3.2;;;1.4;;
74457;SDS011;62896;51.032;3.712;2023-04-03T13:22:33;3.2;;;1.4;;
74457;SDS011;62896;51.032;3.712;2023-04-03T13:25:51;3.2;;;1.4;;
74457;SDS011;62896;51.032;3.712;2023-04-03T13:29:18;3.2;;;1.4;;
74457;SDS011;62896;51.032;3.712;2023-04-03T13:32:31;3.2;;;1.4;;
74457;SDS011;62896;51.032;3.712;2023-04-03T13:35:54;5.5;;;1.2;;
74457;SDS011;62896;51.032;3.712;2023-04-03T13:39:20;5.5;;;1.2;;
74457;SDS011;62896;51.032;3.712;2023-04-03T13:42:32;5.5;;;1.2;;
74457;SDS011;62896;51.032;3.712;2023-04-03T13:45:53;5.5;;;1.2;;
74457;SDS011;62896;51.032;3.712;2023-04-03T13:49:20;5.5;;;1.2;;
74457;SDS011;62896;51.032;3.712;2023-04-03T13:52:32;5.5;;;1.2;;
74457;SDS011;62896;51.032;3.712;2023-04-03T13:55:53;5.5;;;1.2;;
74457;SDS011;62896;51.032;3.712;2023-04-03T13:59:21;5.5;;;1.2;;
74457;SDS011;62896;51.032;3.712;2023-04-03T14:02:32;3.5;;;1.1;;
74457;SDS011;62896;51.032;3.712;2023-04-03T14:05:52;3.5;;;1.1;;
74457;SDS011;62896;51.032;3.712;2023-04-03T14:09:12;3.5;;;1.1;;
74457;SDS011;62896;51.032;3.712;2023-04-03T14:12:32;3.5;;;1.1;;
74457;SDS011;62896;51.032;3.712;2023-04-03T14:15:51;3.5;;;1.1;;
74457;SDS011;62896;51.032;3.712;2023-04-03T14:19:16;3.5;;;1.1;;
74457;SDS011;62896;51.032;3.712;2023-04-03T14:22:32;3.5;;;1.1;;
74457;SDS011;62896;51.032;3.712;2023-04-03T14:25:51;2.5;;;1;;
74457;SDS011;62896;51.032;3.712;2023-04-03T14:29:12;2.5;;;1;;
74457;SDS011;62896;51.032;3.712;2023-04-03T14:32:31;2.5;;;1;;
74457;SDS011;62896;51.032;3.712;2023-04-03T14:35:51;2.5;;;1;;
74457;SDS011;62896;51.032;3.712;2023-04-03T14:39:15;2.5;;;1;;
74457;SDS011;62896;51.032;3.712;2023-04-03T14:42:32;2.5;;;1;;
74457;SDS011;62896;51.032;3.712;2023-04-03T14:45:51;2.5;;;1;;
74457;SDS011;62896;51.032;3.712;2023-04-03T14:49:12;2.5;;;1;;
74457;SDS011;62896;51.032;3.712;2023-04-03T14:52:33;1.9;;;0.9;;
74457;SDS011;62896;51.032;3.712;2023-04-03T14:55:52;1.9;;;0.9;;
74457;SDS011;62896;51.032;3.712;2023-04-03T14:59:12;1.9;;;0.9;;
74457;SDS011;62896;51.032;3.712;2023-04-03T15:02:32;1.9;;;0.9;;
74457;SDS011;62896;51.032;3.712;2023-04-03T15:05:51;1.9;;;0.9;;
74457;SDS011;62896;51.032;3.712;2023-04-03T15:09:15;1.9;;;0.9;;
74457;SDS011;62896;51.032;3.712;2023-04-03T15:12:31;1.9;;;0.9;;
74457;SDS011;62896;51.032;3.712;2023-04-03T15:15:51;2.4;;;1.1;;
74457;SDS011;62896;51.032;3.712;2023-04-03T15:19:12;2.4;;;1.1;;
74457;SDS011;62896;51.032;3.712;2023-04-03T15:22:31;2.4;;;1.1;;
74457;SDS011;62896;51.032;3.712;2023-04-03T15:25:52;2.4;;;1.1;;
74457;SDS011;62896;51.032;3.712;2023-04-03T15:29:11;2.4;;;1.1;;
74457;SDS011;62896;51.032;3.712;2023-04-03T15:32:31;2.4;;;1.1;;
74457;SDS011;62896;51.032;3.712;2023-04-03T15:35:51;2.4;;;1.1;;
74457;SDS011;62896;51.032;3.712;2023-04-03T15:39:11;2.4;;;1.1;;
74457;SDS011;62896;51.032;3.712;2023-04-03T15:42:32;1.9;;;0.9;;
74457;SDS011;62896;51.032;3.712;2023-04-03T15:45:51;1.9;;;0.9;;
74457;SDS011;62896;51.032;3.712;2023-04-03T15:49:12;1.9;;;0.9;;
74457;SDS011;62896;51.032;3.712;2023-04-03T15:52:31;1.9;;;0.9;;
74457;SDS011;62896;51.032;3.712;2023-04-03T15:55:51;1.9;;;0.9;;
74457;SDS011;62896;51.032;3.712;2023-04-03T15:59:11;1.9;;;0.9;;
74457;SDS011;62896;51.032;3.712;2023-04-03T16:02:31;1.9;;;0.9;;
74457;SDS011;62896;51.032;3.712;2023-04-03T16:05:51;2.2;;;1;;
74457;SDS011;62896;51.032;3.712;2023-04-03T16:09:12;2.2;;;1;;
74457;SDS011;62896;51.032;3.712;2023-04-03T16:12:31;2.2;;;1;;
74457;SDS011;62896;51.032;3.712;2023-04-03T16:15:52;2.2;;;1;;
74457;SDS011;62896;51.032;3.712;2023-04-03T16:19:11;2.2;;;1;;
74457;SDS011;62896;51.032;3.712;2023-04-03T16:22:31;2.2;;;1;;
74457;SDS011;62896;51.032;3.712;2023-04-03T16:25:52;2.2;;;1;;
74457;SDS011;62896;51.032;3.712;2023-04-03T16:29:11;2.2;;;1;;
74457;SDS011;62896;51.032;3.712;2023-04-03T16:32:32;3.3;;;1.2;;
74457;SDS011;62896;51.032;3.712;2023-04-03T16:35:51;3.3;;;1.2;;
74457;SDS011;62896;51.032;3.712;2023-04-03T16:39:11;3.3;;;1.2;;
74457;SDS011;62896;51.032;3.712;2023-04-03T16:42:32;3.3;;;1.2;;
74457;SDS011;62896;51.032;3.712;2023-04-03T16:45:52;3.3;;;1.2;;
74457;SDS011;62896;51.032;3.712;2023-04-03T16:49:12;3.3;;;1.2;;
74457;SDS011;62896;51.032;3.712;2023-04-03T16:52:32;3.3;;;1.2;;
74457;SDS011;62896;51.032;3.712;2023-04-03T16:55:52;1.6;;;0.8;;
74457;SDS011;62896;51.032;3.712;2023-04-03T16:59:12;1.6;;;0.8;;
74457;SDS011;62896;51.032;3.712;2023-04-03T17:02:32;1.6;;;0.8;;
74457;SDS011;62896;51.032;3.712;2023-04-03T17:05:52;1.6;;;0.8;;
74457;SDS011;62896;51.032;3.712;2023-04-03T17:09:12;1.6;;;0.8;;
74457;SDS011;62896;51.032;3.712;2023-04-03T17:12:32;1.6;;;0.8;;
74457;SDS011;62896;51.032;3.712;2023-04-03T17:15:52;1.6;;;0.8;;
74457;SDS011;62896;51.032;3.712;2023-04-03T17:19:12;1.6;;;0.8;;
74457;SDS011;62896;51.032;3.712;2023-04-03T17:22:32;4.3;;;1;;
74457;SDS011;62896;51.032;3.712;2023-04-03T17:25:52;4.3;;;1;;
74457;SDS011;62896;51.032;3.712;2023-04-03T17:29:12;4.3;;;1;;
74457;SDS011;62896;51.032;3.712;2023-04-03T17:32:32;4.3;;;1;;
74457;SDS011;62896;51.032;3.712;2023-04-03T17:35:52;4.3;;;1;;
74457;SDS011;62896;51.032;3.712;2023-04-03T17:39:12;4.3;;;1;;
74457;SDS011;62896;51.032;3.712;2023-04-03T17:42:32;4.3;;;1;;
74457;SDS011;62896;51.032;3.712;2023-04-03T17:45:52;2.7;;;1;;
74457;SDS011;62896;51.032;3.712;2023-04-03T17:49:12;2.7;;;1;;
74457;SDS011;62896;51.032;3.712;2023-04-03T17:52:32;2.7;;;1;;
74457;SDS011;62896;51.032;3.712;2023-04-03T17:55:52;2.7;;;1;;
74457;SDS011;62896;51.032;3.712;2023-04-03T17:59:12;2.7;;;1;;
74457;SDS011;62896;51.032;3.712;2023-04-03T18:02:32;2.7;;;1;;
74457;SDS011;62896;51.032;3.712;2023-04-03T18:05:52;2.7;;;1;;
74457;SDS011;62896;51.032;3.712;2023-04-03T18:09:12;2.7;;;1;;
74457;SDS011;62896;51.032;3.712;2023-04-03T18:12:32;2.7;;;1.1;;
74457;SDS011;62896;51.032;3.712;2023-04-03T18:15:52;2.7;;;1.1;;
74457;SDS011;62896;51.032;3.712;2023-04-03T18:19:12;2.7;;;1.1;;
74457;SDS011;62896;51.032;3.712;2023-04-03T18:22:32;2.7;;;1.1;;
74457;SDS011;62896;51.032;3.712;2023-04-03T18:25:52;2.7;;;1.1;;
74457;SDS011;62896;51.032;3.712;2023-04-03T18:29:12;2.7;;;1.1;;
74457;SDS011;62896;51.032;3.712;2023-04-03T18:32:32;2.7;;;1.1;;
74457;SDS011;62896;51.032;3.712;2023-04-03T18:35:52;4.3;;;1.6;;
74457;SDS011;62896;51.032;3.712;2023-04-03T18:39:12;4.3;;;1.6;;
74457;SDS011;62896;51.032;3.712;2023-04-03T18:42:32;4.3;;;1.6;;
74457;SDS011;62896;51.032;3.712;2023-04-03T18:45:52;4.3;;;1.6;;
74457;SDS011;62896;51.032;3.712;2023-04-03T18:49:12;4.3;;;1.6;;
74457;SDS011;62896;51.032;3.712;2023-04-03T18:52:32;4.3;;;1.6;;
74457;SDS011;62896;51.032;3.712;2023-04-03T18:55:52;4.3;;;1.6;;
74457;SDS011;62896;51.032;3.712;2023-04-03T18:59:12;4.3;;;1.6;;
74457;SDS011;62896;51.032;3.712;2023-04-03T19:02:32;4;;;1.7;;
74457;SDS011;62896;51.032;3.712;2023-04-03T19:05:52;4;;;1.7;;
74457;SDS011;62896;51.032;3.712;2023-04-03T19:09:12;4;;;1.7;;
74457;SDS011;62896;51.032;3.712;2023-04-03T19:12:32;4;;;1.7;;
74457;SDS011;62896;51.032;3.712;2023-04-03T19:15:52;4;;;1.7;;
74457;SDS011;62896;51.032;3.712;2023-04-03T19:19:12;4;;;1.7;;
74457;SDS011;62896;51.032;3.712;2023-04-03T19:22:32;4;;;1.7;;
74457;SDS011;62896;51.032;3.712;2023-04-03T19:25:57;5.5;;;2.2;;
74457;SDS011;62896;51.032;3.712;2023-04-03T19:29:12;5.5;;;2.2;;
74457;SDS011;62896;51.032;3.712;2023-04-03T19:32:32;5.5;;;2.2;;
74457;SDS011;62896;51.032;3.712;2023-04-03T19:35:52;5.5;;;2.2;;
74457;SDS011;62896;51.032;3.712;2023-04-03T19:39:12;5.5;;;2.2;;
74457;SDS011;62896;51.032;3.712;2023-04-03T19:42:32;5.5;;;2.2;;
74457;SDS011;62896;51.032;3.712;2023-04-03T19:45:52;5.5;;;2.2;;
74457;SDS011;62896;51.032;3.712;2023-04-03T19:49:12;5.5;;;2.2;;
74457;SDS011;62896;51.032;3.712;2023-04-03T19:52:32;8.7;;;2.1;;
74457;SDS011;62896;51.032;3.712;2023-04-03T19:55:52;8.7;;;2.1;;
74457;SDS011;62896;51.032;3.712;2023-04-03T19:59:12;8.7;;;2.1;;
74457;SDS011;62896;51.032;3.712;2023-04-03T20:02:32;8.7;;;2.1;;
74457;SDS011;62896;51.032;3.712;2023-04-03T20:05:52;8.7;;;2.1;;
74457;SDS011;62896;51.032;3.712;2023-04-03T20:09:12;8.7;;;2.1;;
74457;SDS011;62896;51.032;3.712;2023-04-03T20:12:32;8.7;;;2.1;;
74457;SDS011;62896;51.032;3.712;2023-04-03T20:15:52;5;;;1.9;;
74457;SDS011;62896;51.032;3.712;2023-04-03T20:19:12;5;;;1.9;;
74457;SDS011;62896;51.032;3.712;2023-04-03T20:22:32;5;;;1.9;;
74457;SDS011;62896;51.032;3.712;2023-04-03T20:25:52;5;;;1.9;;
74457;SDS011;62896;51.032;3.712;2023-04-03T20:29:12;5;;;1.9;;
74457;SDS011;62896;51.032;3.712;2023-04-03T20:32:32;5;;;1.9;;
74457;SDS011;62896;51.032;3.712;2023-04-03T20:35:52;5;;;1.9;;
74457;SDS011;62896;51.032;3.712;2023-04-03T20:39:12;5;;;1.9;;
74457;SDS011;62896;51.032;3.712;2023-04-03T20:42:32;6.3;;;2.1;;
74457;SDS011;62896;51.032;3.712;2023-04-03T20:45:52;6.3;;;2.1;;
74457;SDS011;62896;51.032;3.712;2023-04-03T20:49:12;6.3;;;2.1;;